WetterOnline ( https://www.wetteronline.de )

Wetter aktuell Hanau

Aktuelles Wetter: Offenbach (119m)

6-stündlich | Neueste Meldungen
Ortszeit Temperatur Wetter
Sa, 07.12. 13:00 9.9° C bewölkt
Sa, 07.12. 7:00 7.5° C bewölkt
Sa, 07.12. 1:00 5.8° C bedeckt
Fr, 06.12. 19:00 4.6° C leichter Regen
Fr, 06.12. 13:00 2.5° C bedeckt
Fr, 06.12. 7:00 -0.8° C bedeckt
Fr, 06.12. 1:00 -0.9° C Nebel
Do, 05.12. 19:00 -1.4° C Nebel
Ortszeit Temperatur Wetter
Sa, 07.12. 15:00 10.2° C wolkig
Sa, 07.12. 14:50 10.2° C wolkig
Sa, 07.12. 14:40 10.1° C leicht bewölkt
Sa, 07.12. 14:30 10.2° C wolkenlos
Sa, 07.12. 14:20 10.2° C wolkenlos
Sa, 07.12. 14:10 10.4° C wolkenlos
Sa, 07.12. 14:00 10.3° C fast wolkenlos
Sa, 07.12. 13:30 10.2° C wolkig
Sa, 07.12. 13:00 9.9° C bewölkt
Sa, 07.12. 12:30 9.2° C wolkig
Sa, 07.12. 12:00 9.1° C bedeckt
Ortszeit Relative Feuchte Sichtweite
Sa, 07.12. 13:00 78% 45 km
Sa, 07.12. 7:00 93% 24 km
Sa, 07.12. 1:00 93% 24 km
Fr, 06.12. 19:00 93% 10 km
Fr, 06.12. 13:00 90% 16 km
Fr, 06.12. 7:00 96% 4.4 km
Fr, 06.12. 1:00 100% 0.4 km
Do, 05.12. 19:00 100% 0.8 km
Ortszeit Relative Feuchte Sichtweite
Sa, 07.12. 15:00 62% 55 km
Sa, 07.12. 14:50 62% -
Sa, 07.12. 14:40 63% -
Sa, 07.12. 14:30 64% 55 km
Sa, 07.12. 14:20 64% -
Sa, 07.12. 14:10 65% -
Sa, 07.12. 14:00 68% 55 km
Sa, 07.12. 13:30 72% 55 km
Sa, 07.12. 13:00 78% 45 km
Sa, 07.12. 12:30 82% 28 km
Sa, 07.12. 12:00 84% 40 km
Ortszeit Niederschlagsmenge Niederschlagsart
Sa, 07.12. 13:00 0.1 l/m2 in 6 Std. Regen
Sa, 07.12. 7:00 5 l/m2 in 12 Std. Regen
Sa, 07.12. 1:00 4 l/m2 in 6 Std. Regen
Fr, 06.12. 19:00 3 l/m2 in 12 Std. Regen
Fr, 06.12. 13:00 0.0 l/m2 in 6 Std. -
Fr, 06.12. 7:00 0.0 l/m2 in 12 Std. -
Fr, 06.12. 1:00 0.0 l/m2 in 6 Std. -
Do, 05.12. 19:00 0.0 l/m2 in 12 Std. -
Ortszeit Niederschlagsmenge Niederschlagsart
Sa, 07.12. 15:00 0.0 l/m2 in 1 Std. -
Sa, 07.12. 14:50 keine Meldung -
Sa, 07.12. 14:40 keine Meldung -
Sa, 07.12. 14:30 0.0 l/m2 in 1 Std. -
Sa, 07.12. 14:20 keine Meldung -
Sa, 07.12. 14:10 keine Meldung -
Sa, 07.12. 14:00 0.0 l/m2 in 1 Std. -
Sa, 07.12. 13:30 0.0 l/m2 in 1 Std. -
Sa, 07.12. 13:00 0.1 l/m2 in 1 Std. Regen
Sa, 07.12. 12:30 0.1 l/m2 in 1 Std. Schnee
Sa, 07.12. 12:00 0.1 l/m2 in 1 Std. Sprühregen
Ortszeit Stärke Spitze Richtung
km/h Bft. km/h Grad Sektor
Sa, 07.12. 13:00 11 2 32 240° SW
Sa, 07.12. 7:00 13 3 35 230° SW
Sa, 07.12. 1:00 18 3 40 210° SW
Fr, 06.12. 19:00 14 3 29 200° S
Fr, 06.12. 13:00 11 2 29 190° S
Fr, 06.12. 7:00 11 2 25 230° SW
Fr, 06.12. 1:00 9 2 22 230° SW
Do, 05.12. 19:00 6 1 15 220° SW
Ortszeit Stärke Spitze Richtung
km/h Bft. km/h Grad Sektor
Sa, 07.12. 15:00 18 3 36 260° W
Sa, 07.12. 14:50 18 3 - 260° W
Sa, 07.12. 14:40 17 3 - 260° W
Sa, 07.12. 14:30 18 3 32 260° W
Sa, 07.12. 14:20 18 3 - 260° W
Sa, 07.12. 14:10 18 3 - 260° W
Sa, 07.12. 14:00 24 4 43 260° W
Sa, 07.12. 13:30 17 3 30 240° SW
Sa, 07.12. 13:00 11 2 32 240° SW
Sa, 07.12. 12:30 15 3 31 240° SW
Sa, 07.12. 12:00 14 3 32 240° SW
Ortszeit Untergrenze Bedeckung Gattung
total tief tief mittel hoch
Sa, 07.12. 13:00 1410 m 7/8 7/8 - - -
Sa, 07.12. 7:00 870 m 7/8 7/8 - - -
Sa, 07.12. 1:00 540 m 8/8 8/8 - - -
Fr, 06.12. 19:00 690 m 7/8 7/8 - - -
Fr, 06.12. 13:00 240 m 8/8 8/8 - - -
Fr, 06.12. 7:00 120 m 8/8 8/8 - - -
Fr, 06.12. 1:00 30 m 8/8 8/8 - - -
Do, 05.12. 19:00 30 m 8/8 8/8 - - -
Ortszeit Bedeckungsgrad in Achtel und Wolkenuntergrenze
Sa, 07.12. 15:00 6(1470m)
Sa, 07.12. 14:50 6(1470m)
Sa, 07.12. 14:40 4(1440m)
Sa, 07.12. 14:30 1(1050m)
Sa, 07.12. 14:20 keine Wolken
Sa, 07.12. 14:10 keine Wolken
Sa, 07.12. 14:00 1(1500m)
Sa, 07.12. 13:30 5(1290m) 7(1500m) 4(1500m)
Sa, 07.12. 13:00 7(1410m) 7(1500m)
Sa, 07.12. 12:30 1(240m) 5(1260m) 6(1500m)
Sa, 07.12. 12:00 8(1200m)
Ortszeit Luftdruck NN (hPa) Tendenz (hPa in 3 Std.)
Sa, 07.12. 13:00 1016 + 0,9
Sa, 07.12. 7:00 1013 + 2,0
Sa, 07.12. 1:00 1011 - 0,8
Fr, 06.12. 19:00 1013 - 1,6
Fr, 06.12. 13:00 1018 - 2,2
Fr, 06.12. 7:00 1020 - 0,7
Fr, 06.12. 1:00 1022 - 1,0
Do, 05.12. 19:00 1024 + 0,2
Ortszeit Luftdruck NN (hPa) Tendenz (hPa in 3 Std.)
Sa, 07.12. 15:00 1016 + 0,1
Sa, 07.12. 14:50 1016 keine Meldung
Sa, 07.12. 14:40 1016 keine Meldung
Sa, 07.12. 14:30 1016 + 0,1
Sa, 07.12. 14:20 1016 keine Meldung
Sa, 07.12. 14:10 1016 keine Meldung
Sa, 07.12. 14:00 1016 0,0
Sa, 07.12. 13:30 1016 + 0,2
Sa, 07.12. 13:00 1016 + 0,9
Sa, 07.12. 12:30 1016 + 0,8
Sa, 07.12. 12:00 1016 + 1,3
Ortszeit Schneehöhe (cm)
Sa, 07.12. 13:00 0
Sa, 07.12. 7:00 0
Sa, 07.12. 1:00 0
Fr, 06.12. 19:00 0
Fr, 06.12. 13:00 0
Fr, 06.12. 7:00 0
Fr, 06.12. 1:00 0
Do, 05.12. 19:00 0
Ortszeit Schneehöhe (cm)
Sa, 07.12. 15:00 0
Sa, 07.12. 14:50 0
Sa, 07.12. 14:40 0
Sa, 07.12. 14:30 0
Sa, 07.12. 14:20 0
Sa, 07.12. 14:10 0
Sa, 07.12. 14:00 0
Sa, 07.12. 13:30 0
Sa, 07.12. 13:00 0
Sa, 07.12. 12:30 0
Sa, 07.12. 12:00 0
Link zu dieser Seite / Seite empfehlen

Das Wetter in ...